Fairport, NY (14450)

10:43 AM EST on February 14, 2016 (GMT -0500)
North of Perinton Square | | Change Station
CLOSE
Current Station
Personal Weather Station
Location: Fairport, NY
Elevation: 623 ft
Nearby Weather Stations

Elev 623 ft 43.08 °N, 77.44 °W | Updated 2 seconds ago

Clear
Clear
0.3 °F
Feels Like 0 °F
N
2.0
Wind Variable Wind from West
Gusts 2.5 mph

Today
High -- | Low -- °F
--% Chance of Precip.
Yesterday
High -- | Low -- °F
Precip. -- in
Pressure 30.60 in
Visibility 10.0 miles
Clouds Few 2000 ft
Windchill 0 °F
Dew Point -13 °F
Humidity 52%
Rainfall 0.00 in
Snow Depth Not available.
7:09 AM 5:38 PM
Waxing Crescent, 42% visible
METAR KROC 141454Z 23007KT 10SM FEW020 M19/M23 A3054 RMK AO2 UPB08E36 SLP362 P0000 60000 T11941233 51005
Pressure 30.60 in
Visibility 10.0 miles
Clouds Few 2000 ft
Windchill 0 °F
Dew Point -13 °F
Humidity 52%
Rainfall 0.00 in
Snow Depth Not available.
7:09 AM 5:38 PM
Waxing Crescent, 42% visible
METAR KROC 141454Z 23007KT 10SM FEW020 M19/M23 A3054 RMK AO2 UPB08E36 SLP362 P0000 60000 T11941233 51005

10-Day Weather Forecast

Almanac

Astronomy

Feb. 14, 2016 Rise Set
Actual Time
Civil Twilight
Nautical Twilight
Astronomical Twilight
Moon
Length of Visible Light
Length of Day
Tomorrow will be .
, % of the Moon is Illuminated

Today's Extremes

State Highs State Lows

Community

WunderPhotos

Upload Photos

1,892,802 photos uploaded!

WunderBlog® & News

Nearby

Air Quality

  Air Quality AQ Index Pollutant
Not available.

Snow Depth

Station Depth Elevation

Earthquake Activity

City Distance Mag. Time & Date
Minimum magnitude displayed is 2.5.

Coastal Water Temperatures

Place Temperature

Stations

Nearby Weather Stations

Station Location Temp. Windchill Dew Point Humidity Wind Precip. Elev Updated Type
                   

Watches & Warnings

There are currently no watches in effect.